ローマ/フィウミチーノ の空港の天気 - METARとTAF

ローマ・レオナルド・ダ・ビンチ国際空港 ( LIRF / FCO ) - イタリア ローマ
飛行場実況気象(Metar)
観測時間07/29 02:50 CEST (07/29 00:50 UTC)
風向・風速東 3m/s
視程10km以上
天気現象
なし
気温22℃
湿度57%
気圧1014hPa
METARLIRF 290050Z 09006KT CAVOK 22/13 Q1014 NOSIG
過去の天気等 Google飛行場航空写真 Wunderground天気予報

過去48時間のMETAR

飛行場予報(TAF)
発表時間: 7/29 01:00 CEST (7/28 23:00 UTC)
予報対象時間: 29日2時 CEST ~ 30日8時 CEST
風向・風速不定 3m/s
視程10km以上
なし
29日10時 CEST ~ 29日12時 CEST に徐々に
風向・風速西南西 6m/s
29日20時 CEST ~ 29日22時 CEST に徐々に
風向・風速不定 3m/s
TAF LIRF 282300Z 2900/3006 VRB05KT CAVOK
BECMG 2908/2910 24012KT
BECMG 2918/2920 VRB05KT